INFORMACIÓN METAR y TAF
METAR FOR BIKF
ADDS - METARS form results

(2126 UTC 13 August 2022)
Data provider http://aviationweather.gov/metar/data/
 
METAR text: BIKF 132100Z 15006KT 9999 FEW020 BKN044 10/07 Q1009
Conditions at: BIKF (KEFLAVIK (CIV/MI, IS) observed 2100 UTC 13 August 2022
Temperature: 10.0°C (50°F)
Dewpoint: 7.0°C (45°F) [RH = 82%]
Pressure (altimeter): 29.79 inches Hg (1009.0 mb)
Winds: from the SSE (150 degrees) at 7 MPH (6 knots; 3.1 m/s)
Visibility: 6 or more miles (10+ km)
Ceiling: 4400 feet AGL
Clouds: few clouds at 2000 feet AGL
broken clouds at 4400 feet AGL
Weather: no significant weather observed at this time

METAR text: BIKF 132030Z 16005KT 110V180 9999 FEW020 BKN045 10/06 Q1009
Conditions at: BIKF (KEFLAVIK (CIV/MI, IS) observed 2030 UTC 13 August 2022
Temperature: 10.0°C (50°F)
Dewpoint: 6.0°C (43°F) [RH = 76%]
Pressure (altimeter): 29.79 inches Hg (1009.0 mb)
Winds: from the SSE (160 degrees) at 6 MPH (5 knots; 2.6 m/s)
Visibility: 6 or more miles (10+ km)
Ceiling: 4500 feet AGL
Clouds: few clouds at 2000 feet AGL
broken clouds at 4500 feet AGL
Weather: no significant weather observed at this time

Forecast for: BIKF (KEFLAVIK (CIV/MI, IS)
Text: TAF BIKF 131952Z 1321/1421 18010KT 9999 SCT015 BKN025 TX12/1416Z TN06/1406Z
Forecast period: 2100 UTC 13 August 2022 to 1100 UTC 14 August 2022
Forecast type: FROM: standard forecast or significant change
Winds: from the S (180 degrees) at 12 MPH (10 knots; 5.1 m/s)
Visibility: 6 or more miles (10+ km)
Ceiling: 2500 feet AGL
Clouds: scattered clouds at 1500 feet AGL
broken clouds at 2500 feet AGL
Weather: no significant weather forecast for this period
Text: PROB40
Forecast period: 2100 UTC 13 August 2022 to 1200 UTC 14 August 2022
Forecast type: TEMPORARY: The following changes expected for less than half the time period
Visibility: 4 miles (6 km)
Ceiling: 1200 feet AGL
Clouds: broken clouds at 1200 feet AGL
Weather: SHRA  (rain showers)
Text: TEMPO 1321/1412 6000 SHRA BKN012
Forecast period: 1100 to 2100 UTC 14 August 2022
Forecast type: BECOMING: Conditions expected to become as follows by 1300 UTC 14 August 2022
Winds: from the N (350 degrees) at 12 MPH (10 knots; 5.1 m/s)
Visibility: 6 or more miles (10+ km)
Ceiling: 2500 feet AGL
Clouds: scattered clouds at 1500 feet AGL
broken clouds at 2500 feet AGL
Weather: no significant weather forecast for this period

 MAPA DE AEROPUERTO

 INFORMACIÓN DE PISTA